Time;durP1;ratioP1;P1;durP2;ratioP2;P2;SDS_P1;SDS_P2;PMS_P1;PMS_P2;Temp;Humidity;BMP_temperature;BMP_pressure;BME280_temperature;BME280_humidity;BME280_pressure;Samples;Min_cycle;Max_cycle;Signal;HPM_P1;HPM_P2
2022/09/14 00:02:23;;;;;;;11.57;9.00;;;15.70;99.90;;;;;;6241925;23;20226;-57
2022/09/14 00:04:50;;;;;;;10.07;8.63;;;15.60;99.90;;;;;;6241611;23;20183;-54
2022/09/14 00:07:16;;;;;;;10.60;9.60;;;15.60;99.90;;;;;;6241646;23;20172;-50
2022/09/14 00:09:42;;;;;;;10.20;9.20;;;15.60;99.90;;;;;;6242094;23;20355;-56
2022/09/14 00:12:09;;;;;;;9.97;8.80;;;15.60;99.90;;;;;;6242252;23;20378;-58
2022/09/14 00:14:34;;;;;;;10.43;9.37;;;15.50;99.90;;;;;;6242302;23;20371;-57
2022/09/14 00:17:00;;;;;;;10.57;9.57;;;15.50;99.90;;;;;;6242788;23;20360;-58
2022/09/14 00:19:26;;;;;;;9.57;8.50;;;15.50;99.90;;;;;;6241929;23;20147;-56
2022/09/14 00:21:57;;;;;;;9.27;8.37;;;15.50;99.90;;;;;;6241117;23;20143;-58
2022/09/14 00:24:24;;;;;;;10.60;9.60;;;15.40;99.90;;;;;;6242181;23;20664;-54
2022/09/14 00:26:50;;;;;;;10.10;9.10;;;15.40;99.90;;;;;;6241664;23;20397;-55
2022/09/14 00:29:16;;;;;;;12.00;9.40;;;15.40;99.90;;;;;;6241920;23;20488;-58
2022/09/14 00:31:42;;;;;;;9.43;8.63;;;15.40;99.90;;;;;;6242178;23;20708;-58
2022/09/14 00:34:11;;;;;;;9.13;8.27;;;15.40;99.90;;;;;;6241281;23;20426;-58
2022/09/14 00:36:40;;;;;;;9.50;8.53;;;15.40;99.90;;;;;;6241921;23;20147;-56
2022/09/14 00:39:06;;;;;;;10.00;9.00;;;15.40;99.90;;;;;;6241594;23;20687;-57
2022/09/14 00:41:35;;;;;;;9.47;8.57;;;15.30;99.90;;;;;;6242075;23;20499;-56
2022/09/14 00:44:09;;;;;;;10.20;9.20;;;15.30;99.90;;;;;;6240917;23;20376;-57
2022/09/14 00:46:43;;;;;;;11.20;9.57;;;15.40;99.90;;;;;;6242115;23;20373;-58
2022/09/14 00:49:21;;;;;;;9.47;8.57;;;15.30;99.90;;;;;;6240975;23;20430;-52
2022/09/14 00:52:09;;;;;;;10.10;8.67;;;15.30;99.90;;;;;;6241731;23;20431;-47
2022/09/14 00:54:53;;;;;;;9.80;8.60;;;15.30;99.90;;;;;;6241753;23;20425;-58
2022/09/14 00:57:20;;;;;;;9.30;8.30;;;15.30;99.90;;;;;;6241289;23;20454;-52
2022/09/14 00:59:48;;;;;;;10.03;8.77;;;15.30;99.90;;;;;;6241485;23;20413;-49
2022/09/14 01:02:15;;;;;;;10.37;8.60;;;15.30;99.90;;;;;;6240882;23;20433;-58
2022/09/14 01:04:42;;;;;;;11.80;9.33;;;15.30;99.90;;;;;;6240867;23;20379;-52
2022/09/14 01:07:16;;;;;;;11.00;9.20;;;15.20;99.90;;;;;;6241700;23;20444;-58
2022/09/14 01:09:42;;;;;;;9.03;8.13;;;15.20;99.90;;;;;;6241290;23;20920;-54
2022/09/14 01:12:13;;;;;;;9.40;8.40;;;15.20;99.90;;;;;;6241367;23;20359;-59
2022/09/14 01:14:53;;;;;;;10.57;9.57;;;15.20;99.90;;;;;;6240661;23;21058;-57
2022/09/14 01:17:29;;;;;;;10.37;9.30;;;15.20;99.90;;;;;;6241017;23;20382;-58
2022/09/14 01:20:19;;;;;;;10.00;8.97;;;15.20;99.90;;;;;;6241217;23;20805;-57
2022/09/14 01:23:12;;;;;;;10.40;9.40;;;15.20;99.90;;;;;;6241254;23;20845;-58
2022/09/14 01:25:52;;;;;;;10.10;9.10;;;15.20;99.90;;;;;;6241585;23;20784;-54
2022/09/14 01:28:23;;;;;;;9.63;8.83;;;15.20;99.90;;;;;;6239590;23;20412;-56
2022/09/14 01:30:52;;;;;;;10.10;9.10;;;15.30;99.90;;;;;;6241092;23;20429;-56
2022/09/14 01:33:24;;;;;;;10.03;9.07;;;15.20;99.90;;;;;;6241392;23;20842;-55
2022/09/14 01:35:56;;;;;;;10.53;9.37;;;15.20;99.90;;;;;;6240560;23;20366;-52
2022/09/14 01:38:32;;;;;;;10.67;9.50;;;15.20;99.90;;;;;;6240895;23;20464;-51
2022/09/14 01:41:00;;;;;;;10.17;9.20;;;15.20;99.90;;;;;;6241347;23;20700;-57
2022/09/14 01:43:39;;;;;;;10.30;9.40;;;15.10;99.90;;;;;;6240853;23;20845;-49
2022/09/14 01:46:21;;;;;;;10.23;9.30;;;15.10;99.90;;;;;;6240869;23;20813;-58
2022/09/14 01:48:53;;;;;;;13.20;9.97;;;15.10;99.90;;;;;;6240807;23;20416;-56
2022/09/14 01:51:24;;;;;;;10.10;9.10;;;15.10;99.90;;;;;;6213613;23;20469;-49
2022/09/14 01:53:56;;;;;;;12.47;8.77;;;15.20;99.90;;;;;;6239986;23;20363;-56
2022/09/14 01:56:32;;;;;;;10.20;9.30;;;15.20;99.90;;;;;;6241077;23;20370;-56
2022/09/14 01:59:06;;;;;;;10.27;9.30;;;15.20;99.90;;;;;;6241042;23;20452;-56
2022/09/14 02:01:59;;;;;;;10.30;9.30;;;15.20;99.90;;;;;;6241309;23;20860;-57
2022/09/14 02:04:56;;;;;;;11.30;10.00;;;15.30;99.90;;;;;;6236345;23;20397;-57
2022/09/14 02:07:22;;;;;;;10.43;9.50;;;15.30;99.90;;;;;;6239832;23;20454;-56
2022/09/14 02:09:50;;;;;;;10.03;9.00;;;15.40;99.90;;;;;;6240008;23;20356;-52
2022/09/14 02:12:16;;;;;;;10.20;9.20;;;15.40;99.90;;;;;;6241148;23;20413;-56
2022/09/14 02:14:44;;;;;;;9.87;8.97;;;15.40;99.90;;;;;;6240892;23;20360;-58
2022/09/14 02:17:09;;;;;;;9.90;9.00;;;15.50;99.90;;;;;;6240836;23;20437;-55
2022/09/14 02:19:45;;;;;;;10.87;9.77;;;15.50;99.90;;;;;;6240361;23;20363;-54
2022/09/14 02:22:11;;;;;;;10.00;9.10;;;15.60;99.90;;;;;;6239399;23;20227;-57
2022/09/14 02:24:38;;;;;;;10.80;9.80;;;15.60;99.90;;;;;;6240422;23;20405;-55
2022/09/14 02:27:05;;;;;;;10.40;9.40;;;15.60;99.90;;;;;;6240442;23;20810;-55
2022/09/14 02:29:30;;;;;;;12.13;10.00;;;15.50;99.90;;;;;;6239871;23;20484;-50
2022/09/14 02:31:56;;;;;;;10.17;9.27;;;15.50;99.90;;;;;;6240265;23;20364;-57
2022/09/14 02:34:24;;;;;;;10.70;9.70;;;15.50;99.90;;;;;;6239998;23;20141;-56
2022/09/14 02:37:02;;;;;;;10.00;9.10;;;15.60;99.90;;;;;;6239993;23;20149;-57
2022/09/14 02:39:55;;;;;;;14.93;9.80;;;15.60;99.90;;;;;;6240713;23;20367;-57
2022/09/14 02:42:53;;;;;;;10.20;9.20;;;15.70;99.90;;;;;;6240763;23;20458;-51
2022/09/14 02:45:31;;;;;;;9.73;8.83;;;15.70;99.90;;;;;;6240285;23;20912;-55
2022/09/14 02:48:05;;;;;;;10.43;9.43;;;15.70;99.90;;;;;;6240322;23;20415;-58
2022/09/14 02:50:36;;;;;;;10.37;9.37;;;15.70;99.90;;;;;;6239272;23;20390;-57
2022/09/14 02:53:29;;;;;;;10.53;9.20;;;15.70;99.90;;;;;;6240143;23;20360;-58
2022/09/14 02:55:58;;;;;;;10.40;9.40;;;15.70;99.90;;;;;;6240752;23;20374;-56
2022/09/14 02:58:32;;;;;;;11.10;9.60;;;15.80;99.90;;;;;;6240253;23;20379;-52
2022/09/14 03:00:57;;;;;;;9.30;8.50;;;15.80;99.90;;;;;;6212731;23;20453;-55
2022/09/14 03:03:23;;;;;;;10.07;9.07;;;15.90;99.90;;;;;;6240096;23;20368;-57
2022/09/14 03:05:48;;;;;;;9.87;8.97;;;15.90;99.90;;;;;;6239812;23;20184;-50
2022/09/14 03:08:14;;;;;;;10.17;8.77;;;15.90;99.90;;;;;;6240578;23;20194;-55
2022/09/14 03:10:42;;;;;;;10.47;9.57;;;16.00;99.90;;;;;;6239906;23;20141;-49
2022/09/14 03:13:08;;;;;;;11.10;10.07;;;16.00;99.90;;;;;;6240668;23;20632;-57
2022/09/14 03:15:34;;;;;;;10.80;9.87;;;16.00;99.90;;;;;;6239533;23;20442;-58
2022/09/14 03:18:00;;;;;;;9.53;8.70;;;16.00;99.90;;;;;;6239919;23;20370;-57
2022/09/14 03:20:28;;;;;;;10.03;9.10;;;16.10;99.90;;;;;;6239722;23;20369;-56
2022/09/14 03:22:54;;;;;;;11.63;8.97;;;16.10;99.90;;;;;;6240408;23;20279;-55
2022/09/14 03:25:21;;;;;;;10.10;9.10;;;16.10;99.90;;;;;;6240176;23;20395;-55
2022/09/14 03:27:55;;;;;;;9.97;9.07;;;16.10;99.90;;;;;;6240871;23;20188;-58
2022/09/14 03:30:21;;;;;;;11.40;9.00;;;16.10;99.90;;;;;;6239478;23;20439;-56
2022/09/14 03:32:47;;;;;;;10.50;9.40;;;16.10;99.90;;;;;;6239478;23;20368;-55
2022/09/14 03:35:13;;;;;;;9.47;8.47;;;16.10;99.90;;;;;;6240051;23;20365;-58
2022/09/14 03:37:40;;;;;;;9.50;8.60;;;16.20;99.90;;;;;;6239693;23;20454;-47
2022/09/14 03:40:07;;;;;;;9.40;8.50;;;16.20;99.90;;;;;;6239840;23;20384;-58
2022/09/14 03:42:33;;;;;;;10.33;9.43;;;16.20;99.90;;;;;;6239323;23;20360;-56
2022/09/14 03:44:59;;;;;;;10.03;9.00;;;16.20;99.90;;;;;;6239042;23;20367;-57
2022/09/14 03:47:25;;;;;;;10.20;9.30;;;16.30;99.90;;;;;;6240058;23;20437;-55
2022/09/14 03:49:51;;;;;;;10.23;9.30;;;16.30;99.90;;;;;;6239087;23;20164;-54
2022/09/14 03:52:17;;;;;;;9.83;8.93;;;16.30;99.90;;;;;;6240288;23;20422;-57
2022/09/14 03:54:42;;;;;;;9.70;8.70;;;16.30;99.90;;;;;;6240665;23;20368;-49
2022/09/14 03:57:08;;;;;;;9.73;8.83;;;16.30;99.90;;;;;;6239706;23;20438;-50
2022/09/14 03:59:34;;;;;;;10.30;9.50;;;16.40;99.90;;;;;;6239938;23;20157;-58
2022/09/14 04:02:00;;;;;;;11.10;9.07;;;16.40;99.90;;;;;;6239402;23;20190;-55
2022/09/14 04:04:26;;;;;;;10.03;8.43;;;16.40;99.90;;;;;;6239667;23;20232;-53
2022/09/14 04:06:51;;;;;;;10.10;9.17;;;16.50;99.90;;;;;;6239851;23;20400;-53
2022/09/14 04:09:18;;;;;;;9.23;8.33;;;16.50;99.90;;;;;;6212971;23;20913;-57
2022/09/14 04:11:44;;;;;;;10.20;9.20;;;16.50;99.90;;;;;;6239563;23;20163;-57
2022/09/14 04:14:10;;;;;;;10.50;9.63;;;16.50;99.90;;;;;;6239748;23;20368;-52
2022/09/14 04:16:36;;;;;;;9.83;9.03;;;16.50;99.90;;;;;;6239687;23;20443;-50
2022/09/14 04:19:02;;;;;;;9.43;8.53;;;16.50;99.90;;;;;;6228064;23;20501;-55
2022/09/14 04:21:28;;;;;;;12.37;8.47;;;16.50;99.90;;;;;;6230252;23;20474;-47
2022/09/14 04:23:58;;;;;;;11.20;10.20;;;16.50;99.90;;;;;;6202648;23;20388;-56
2022/09/14 04:26:26;;;;;;;11.47;10.47;;;16.50;99.90;;;;;;6201851;23;20223;-54
2022/09/14 04:28:53;;;;;;;11.17;10.10;;;16.50;99.90;;;;;;6229705;23;20420;-55
2022/09/14 04:31:19;;;;;;;10.73;9.73;;;16.50;99.90;;;;;;6230820;23;20379;-51
2022/09/14 04:33:46;;;;;;;11.43;9.77;;;16.40;99.90;;;;;;6229769;23;20855;-50
2022/09/14 04:36:14;;;;;;;10.37;9.37;;;16.30;99.90;;;;;;6230680;23;20161;-53
2022/09/14 04:38:41;;;;;;;11.53;10.07;;;16.30;99.90;;;;;;6230151;23;20374;-56
2022/09/14 04:41:16;;;;;;;11.10;10.00;;;16.30;99.90;;;;;;6233006;23;20410;-57
2022/09/14 04:43:43;;;;;;;12.33;9.97;;;16.30;99.90;;;;;;6239230;23;20481;-55
2022/09/14 04:46:13;;;;;;;11.10;10.10;;;16.30;99.90;;;;;;6241593;23;20356;-56
2022/09/14 04:48:38;;;;;;;10.80;9.67;;;16.40;99.90;;;;;;6240029;23;20411;-57
2022/09/14 04:51:06;;;;;;;10.40;9.50;;;16.40;99.90;;;;;;6241030;23;20415;-53
2022/09/14 04:53:33;;;;;;;9.57;8.73;;;16.40;99.90;;;;;;6242042;23;20161;-57
2022/09/14 04:56:05;;;;;;;11.07;10.07;;;16.40;99.90;;;;;;6214813;23;20388;-54
2022/09/14 04:58:32;;;;;;;10.07;9.17;;;16.50;99.90;;;;;;6242133;23;20792;-55
2022/09/14 05:01:07;;;;;;;9.60;8.70;;;16.40;99.90;;;;;;6241622;23;20379;-57
2022/09/14 05:03:33;;;;;;;10.23;9.23;;;16.50;99.90;;;;;;6241564;23;20375;-58
2022/09/14 05:06:03;;;;;;;11.13;10.10;;;16.40;99.90;;;;;;6241621;23;20437;-51
2022/09/14 05:08:29;;;;;;;10.80;9.80;;;16.30;99.90;;;;;;6241351;23;20419;-57
2022/09/14 05:10:56;;;;;;;10.17;9.17;;;16.20;99.90;;;;;;6241034;23;20454;-55
2022/09/14 05:13:22;;;;;;;11.03;10.03;;;16.20;99.90;;;;;;6241517;23;20253;-54
2022/09/14 05:15:49;;;;;;;13.00;9.87;;;16.20;99.90;;;;;;6241311;23;20391;-57
2022/09/14 05:18:15;;;;;;;11.33;10.00;;;16.20;99.90;;;;;;6241154;23;20753;-57
2022/09/14 05:20:40;;;;;;;10.87;9.87;;;16.20;99.90;;;;;;6241504;23;20432;-57
2022/09/14 05:23:06;;;;;;;11.77;10.50;;;16.30;99.90;;;;;;6214092;23;20379;-55
2022/09/14 05:25:31;;;;;;;11.23;9.60;;;16.30;99.90;;;;;;6241564;23;20564;-55
2022/09/14 05:27:57;;;;;;;12.50;10.33;;;16.30;99.90;;;;;;6241112;23;20683;-57
2022/09/14 05:30:22;;;;;;;10.07;9.13;;;16.40;99.90;;;;;;6240519;23;20557;-56
2022/09/14 05:32:48;;;;;;;10.10;9.20;;;16.40;99.90;;;;;;6241396;23;20165;-53
2022/09/14 05:35:14;;;;;;;11.20;10.10;;;16.40;99.90;;;;;;6241153;23;20141;-58
2022/09/14 05:37:39;;;;;;;10.53;9.43;;;16.50;99.90;;;;;;6240411;23;20485;-54
2022/09/14 05:40:07;;;;;;;10.83;9.83;;;16.50;99.90;;;;;;6241789;23;20142;-52
2022/09/14 05:42:33;;;;;;;10.57;9.67;;;16.50;99.90;;;;;;6241491;23;20181;-57
2022/09/14 05:44:58;;;;;;;11.00;9.90;;;16.60;99.90;;;;;;6241232;23;20381;-57
2022/09/14 05:47:24;;;;;;;10.37;9.40;;;16.60;99.90;;;;;;6241361;23;20574;-57
2022/09/14 05:49:49;;;;;;;12.60;10.20;;;16.70;99.90;;;;;;6241171;23;20149;-50
2022/09/14 05:52:15;;;;;;;10.10;9.10;;;16.70;99.90;;;;;;6241194;23;20191;-57
2022/09/14 05:54:41;;;;;;;12.23;9.77;;;16.70;99.90;;;;;;6241027;23;20165;-52
2022/09/14 05:57:06;;;;;;;9.80;8.80;;;16.70;99.90;;;;;;6240994;23;20149;-57
2022/09/14 05:59:32;;;;;;;9.60;8.80;;;16.80;99.90;;;;;;6240990;23;20144;-56
2022/09/14 06:01:58;;;;;;;10.30;9.40;;;16.80;99.90;;;;;;6241104;23;20475;-56
2022/09/14 06:04:24;;;;;;;10.40;9.30;;;16.90;99.90;;;;;;6240783;23;20222;-55
2022/09/14 06:06:49;;;;;;;10.47;9.40;;;16.80;99.90;;;;;;6240817;23;20415;-57
2022/09/14 06:09:15;;;;;;;11.07;9.30;;;16.90;99.90;;;;;;6240960;23;20597;-56
2022/09/14 06:11:41;;;;;;;10.33;9.43;;;17.00;99.90;;;;;;6240564;23;20177;-51
2022/09/14 06:14:07;;;;;;;10.50;9.50;;;17.00;99.90;;;;;;6240331;23;20134;-47
2022/09/14 06:16:32;;;;;;;10.53;9.53;;;17.00;99.90;;;;;;6240787;23;20383;-53
2022/09/14 06:18:59;;;;;;;11.57;9.73;;;17.00;99.90;;;;;;6241262;23;20244;-55
2022/09/14 06:21:29;;;;;;;12.23;9.90;;;17.10;99.90;;;;;;6240745;23;20153;-58
2022/09/14 06:23:55;;;;;;;10.80;9.80;;;17.10;97.50;;;;;;6240818;23;20372;-58
2022/09/14 06:26:20;;;;;;;11.13;10.07;;;17.10;95.40;;;;;;6241094;23;20364;-54
2022/09/14 06:28:46;;;;;;;10.10;9.20;;;17.10;93.10;;;;;;6241299;23;20563;-50
2022/09/14 06:31:13;;;;;;;11.10;10.20;;;17.10;93.20;;;;;;6240194;23;20207;-54
2022/09/14 06:33:43;;;;;;;11.70;10.60;;;17.20;91.70;;;;;;6240493;23;20191;-53
2022/09/14 06:36:11;;;;;;;16.20;10.47;;;17.20;90.20;;;;;;6239764;23;20379;-58
2022/09/14 06:38:38;;;;;;;12.50;11.17;;;17.10;90.90;;;;;;6239961;23;20444;-58
2022/09/14 06:41:05;;;;;;;10.60;9.70;;;17.10;93.40;;;;;;6240042;23;20360;-58
2022/09/14 06:43:33;;;;;;;11.53;10.43;;;17.20;92.90;;;;;;6239494;23;20390;-53
2022/09/14 06:46:00;;;;;;;10.63;9.73;;;17.30;92.30;;;;;;6239924;23;20371;-57
2022/09/14 06:48:28;;;;;;;10.20;9.30;;;17.30;92.30;;;;;;6239966;23;20469;-57
2022/09/14 06:50:53;;;;;;;11.37;10.17;;;17.40;89.40;;;;;;6240724;23;20706;-53
2022/09/14 06:53:19;;;;;;;11.30;10.20;;;17.50;85.70;;;;;;6240871;23;20364;-57
2022/09/14 06:55:44;;;;;;;11.13;9.00;;;17.50;78.50;;;;;;6240652;23;20153;-49
2022/09/14 06:58:10;;;;;;;9.90;8.90;;;17.60;78.90;;;;;;6240286;23;20421;-56
2022/09/14 07:00:36;;;;;;;10.33;9.33;;;17.60;74.30;;;;;;6241005;23;20477;-58
2022/09/14 07:03:02;;;;;;;10.60;9.50;;;17.60;65.70;;;;;;6241189;23;20389;-57
2022/09/14 07:05:29;;;;;;;15.30;10.27;;;17.60;62.10;;;;;;6241166;23;20157;-56
2022/09/14 07:07:55;;;;;;;10.83;9.73;;;17.60;66.20;;;;;;6240320;23;20176;-58
2022/09/14 07:10:22;;;;;;;10.77;9.73;;;17.60;70.70;;;;;;6240508;23;20356;-57
2022/09/14 07:12:48;;;;;;;13.93;10.33;;;17.60;76.80;;;;;;6213217;23;20385;-52
2022/09/14 07:15:14;;;;;;;15.27;11.60;;;17.60;78.20;;;;;;6239797;23;20379;-56
2022/09/14 07:17:43;;;;;;;16.40;11.10;;;17.60;72.30;;;;;;6240592;23;20394;-56
2022/09/14 07:20:10;;;;;;;12.07;9.70;;;17.60;65.30;;;;;;6241402;23;20529;-57
2022/09/14 07:22:35;;;;;;;13.47;10.73;;;17.60;66.10;;;;;;6239974;23;20352;-54
2022/09/14 07:25:01;;;;;;;15.60;11.13;;;17.60;71.70;;;;;;6240534;23;20480;-54
2022/09/14 07:27:26;;;;;;;12.17;10.87;;;17.60;73.20;;;;;;6240232;23;20474;-56
2022/09/14 07:29:52;;;;;;;14.63;10.70;;;17.70;69.50;;;;;;6208443;23;20246;-57
2022/09/14 07:32:18;;;;;;;12.40;11.30;;;17.60;79.40;;;;;;6209494;23;20142;-54
2022/09/14 07:34:44;;;;;;;11.93;10.93;;;17.60;86.80;;;;;;6209938;23;20468;-57
2022/09/14 07:37:09;;;;;;;13.00;11.80;;;17.40;94.50;;;;;;6209996;23;20135;-51
2022/09/14 07:39:35;;;;;;;13.47;12.13;;;17.40;99.90;;;;;;6209587;23;20138;-58
2022/09/14 07:42:01;;;;;;;13.10;11.80;;;17.40;99.90;;;;;;6199265;23;20154;-56
2022/09/14 07:44:27;;;;;;;13.00;11.80;;;17.30;99.90;;;;;;6199536;23;20138;-54
2022/09/14 07:46:52;;;;;;;12.53;11.40;;;17.30;99.90;;;;;;6200051;23;20376;-57
2022/09/14 07:49:18;;;;;;;13.90;12.13;;;17.40;99.90;;;;;;6200512;23;20190;-54
2022/09/14 07:51:44;;;;;;;13.57;12.30;;;17.40;99.90;;;;;;6200098;23;20138;-53
2022/09/14 07:54:12;;;;;;;13.37;11.97;;;17.50;99.90;;;;;;6199762;23;20150;-52
2022/09/14 07:56:38;;;;;;;13.50;12.30;;;17.60;99.90;;;;;;6199983;23;20739;-58
2022/09/14 07:59:04;;;;;;;12.77;11.57;;;17.60;99.90;;;;;;6200411;23;20386;-56
2022/09/14 08:01:30;;;;;;;12.30;11.10;;;17.60;99.90;;;;;;6200864;23;20367;-52
2022/09/14 08:04:01;;;;;;;12.40;11.17;;;17.70;99.90;;;;;;6200355;23;20376;-54
2022/09/14 08:06:27;;;;;;;15.40;11.60;;;17.70;99.90;;;;;;6200551;23;20365;-58
2022/09/14 08:08:54;;;;;;;13.37;11.97;;;17.70;99.90;;;;;;6200150;23;20471;-58
2022/09/14 08:11:30;;;;;;;12.80;11.47;;;17.70;99.90;;;;;;6199459;23;20365;-58
2022/09/14 08:14:00;;;;;;;12.77;11.67;;;17.70;99.90;;;;;;6199828;23;20480;-57
2022/09/14 08:16:27;;;;;;;12.80;11.47;;;17.70;99.90;;;;;;6200686;23;20452;-57
2022/09/14 08:18:55;;;;;;;13.57;12.37;;;17.70;99.90;;;;;;6200373;23;20370;-57
2022/09/14 08:21:21;;;;;;;13.07;11.87;;;17.70;99.90;;;;;;6202442;23;20387;-56
2022/09/14 08:23:47;;;;;;;13.83;12.67;;;17.70;99.90;;;;;;6201564;23;20369;-58
2022/09/14 08:26:16;;;;;;;14.40;13.00;;;17.80;99.90;;;;;;6202249;23;20400;-54
2022/09/14 08:28:43;;;;;;;14.70;13.27;;;17.80;99.90;;;;;;6202314;23;20453;-56
2022/09/14 08:31:14;;;;;;;15.17;13.23;;;17.80;99.90;;;;;;6230485;23;20437;-57
2022/09/14 08:33:43;;;;;;;15.33;13.57;;;17.90;99.90;;;;;;6232365;23;20475;-52
2022/09/14 08:36:10;;;;;;;13.97;12.40;;;17.90;99.90;;;;;;6232756;23;20373;-57
2022/09/14 08:38:37;;;;;;;14.23;12.90;;;17.90;99.90;;;;;;6232351;23;20467;-59
2022/09/14 08:41:25;;;;;;;15.23;13.93;;;18.00;99.90;;;;;;6232373;23;20443;-56
2022/09/14 08:43:52;;;;;;;14.27;13.03;;;18.00;99.90;;;;;;6231959;23;20376;-56
2022/09/14 08:46:39;;;;;;;14.00;12.70;;;18.00;99.90;;;;;;6205782;23;20380;-50
2022/09/14 08:49:15;;;;;;;16.10;14.47;;;17.90;99.90;;;;;;6232619;23;20430;-56
2022/09/14 08:51:41;;;;;;;16.40;14.90;;;17.90;99.90;;;;;;6232621;23;20443;-58
2022/09/14 08:54:09;;;;;;;15.40;14.00;;;17.90;99.90;;;;;;6232240;23;20839;-57
2022/09/14 08:56:39;;;;;;;15.20;13.80;;;17.80;99.90;;;;;;6230778;23;20680;-52
2022/09/14 08:59:13;;;;;;;15.07;13.67;;;17.80;99.90;;;;;;6232227;23;20874;-57
2022/09/14 09:01:43;;;;;;;14.70;13.47;;;17.80;99.90;;;;;;6232698;23;20683;-50
2022/09/14 09:04:25;;;;;;;15.87;14.23;;;17.70;99.90;;;;;;6232077;23;20478;-55
2022/09/14 09:07:22;;;;;;;17.10;14.60;;;17.70;99.90;;;;;;6232571;23;20376;-57
2022/09/14 09:09:53;;;;;;;16.00;14.50;;;17.70;99.90;;;;;;6236342;23;20397;-56
2022/09/14 09:12:34;;;;;;;15.07;13.67;;;17.80;99.90;;;;;;6242331;23;20356;-53
2022/09/14 09:15:03;;;;;;;15.90;14.40;;;17.80;99.90;;;;;;6232853;23;20384;-57
2022/09/14 09:17:34;;;;;;;17.23;15.50;;;17.90;99.90;;;;;;6240970;23;20450;-53
2022/09/14 09:20:11;;;;;;;15.30;13.93;;;17.90;99.90;;;;;;6241285;23;20383;-55
2022/09/14 09:22:48;;;;;;;17.50;15.67;;;17.90;99.90;;;;;;6240593;23;20391;-56
2022/09/14 09:25:29;;;;;;;17.70;15.97;;;18.00;99.90;;;;;;6240586;23;20364;-52
2022/09/14 09:28:10;;;;;;;17.23;15.63;;;18.10;99.90;;;;;;6241619;23;20671;-55
2022/09/14 09:30:36;;;;;;;16.73;15.13;;;18.10;99.90;;;;;;6239944;23;20434;-58
2022/09/14 09:33:02;;;;;;;17.30;15.60;;;18.20;99.90;;;;;;6240458;23;20396;-51
2022/09/14 09:35:27;;;;;;;16.77;15.27;;;18.20;99.90;;;;;;6241234;23;20558;-52
2022/09/14 09:37:53;;;;;;;17.43;15.73;;;18.10;99.90;;;;;;6241266;23;20157;-52
2022/09/14 09:40:36;;;;;;;17.27;15.53;;;18.10;99.90;;;;;;6241227;23;20169;-52
2022/09/14 09:43:13;;;;;;;18.43;16.67;;;18.10;99.90;;;;;;6240986;23;20216;-54
2022/09/14 09:46:00;;;;;;;17.30;15.50;;;18.10;99.90;;;;;;6239824;23;20368;-48
2022/09/14 09:48:40;;;;;;;17.40;15.70;;;18.20;99.90;;;;;;6241101;23;20416;-52
2022/09/14 09:51:11;;;;;;;18.87;17.00;;;18.20;99.90;;;;;;6240446;23;20360;-53
2022/09/14 09:53:46;;;;;;;18.43;16.50;;;18.20;99.90;;;;;;6239919;23;20696;-54
2022/09/14 09:56:30;;;;;;;18.80;17.03;;;18.30;99.90;;;;;;6240566;23;21021;-53
2022/09/14 09:58:56;;;;;;;18.60;16.80;;;18.30;99.90;;;;;;6241229;23;20401;-55
2022/09/14 10:01:34;;;;;;;18.50;16.70;;;18.40;99.90;;;;;;6241280;23;20384;-50
2022/09/14 10:04:18;;;;;;;18.53;16.73;;;18.40;99.90;;;;;;6241302;23;20165;-51
2022/09/14 10:06:46;;;;;;;18.00;16.13;;;18.50;99.90;;;;;;6234399;23;20376;-49
2022/09/14 10:09:17;;;;;;;18.77;16.87;;;18.50;99.90;;;;;;6232626;23;20433;-50
2022/09/14 10:11:44;;;;;;;17.13;15.50;;;18.50;99.90;;;;;;6239172;23;20379;-52
2022/09/14 10:14:32;;;;;;;17.93;16.23;;;18.60;99.90;;;;;;6239118;23;20372;-51
2022/09/14 10:17:17;;;;;;;18.03;16.20;;;18.60;99.90;;;;;;6240940;23;20361;-55
2022/09/14 10:19:51;;;;;;;19.23;16.80;;;18.70;99.90;;;;;;6240451;23;20379;-52
2022/09/14 10:22:29;;;;;;;18.17;16.50;;;18.70;99.90;;;;;;6239865;23;20704;-54
2022/09/14 10:25:24;;;;;;;19.07;17.23;;;18.80;99.90;;;;;;6240660;23;20527;-52
2022/09/14 10:27:55;;;;;;;18.63;16.80;;;18.80;99.70;;;;;;6239398;23;20436;-52
2022/09/14 10:30:24;;;;;;;17.53;15.90;;;18.90;92.60;;;;;;6240100;23;20427;-51
2022/09/14 10:32:53;;;;;;;20.13;18.13;;;18.90;95.10;;;;;;6240336;23;20696;-55
2022/09/14 10:35:21;;;;;;;18.13;16.40;;;18.90;89.90;;;;;;6240259;23;20364;-54
2022/09/14 10:37:50;;;;;;;17.97;16.37;;;18.90;93.70;;;;;;6240351;23;20394;-47
2022/09/14 10:40:19;;;;;;;18.13;16.43;;;18.90;99.90;;;;;;6240019;23;20376;-49
2022/09/14 10:43:02;;;;;;;19.33;17.43;;;18.90;99.90;;;;;;6239982;23;20881;-48
2022/09/14 10:45:38;;;;;;;20.07;18.10;;;19.00;99.90;;;;;;6240451;23;20368;-52
2022/09/14 10:48:31;;;;;;;19.93;17.93;;;19.00;99.90;;;;;;6241713;23;20422;-54
2022/09/14 10:51:19;;;;;;;19.80;18.00;;;19.00;97.50;;;;;;6240841;23;20819;-52
2022/09/14 10:54:03;;;;;;;18.57;16.73;;;19.00;94.50;;;;;;6240685;23;20452;-53
2022/09/14 10:56:50;;;;;;;20.67;18.10;;;19.00;82.40;;;;;;6240943;23;20964;-53
2022/09/14 10:59:26;;;;;;;18.87;16.87;;;18.90;74.40;;;;;;6241640;23;20371;-52
2022/09/14 11:02:10;;;;;;;20.27;17.83;;;18.70;59.40;;;;;;6239947;23;20364;-52
2022/09/14 11:05:13;;;;;;;18.93;17.23;;;18.60;91.80;;;;;;6240644;23;20387;-56
2022/09/14 11:07:58;;;;;;;20.60;18.50;;;18.70;99.90;;;;;;6240828;23;20753;-57
2022/09/14 11:10:42;;;;;;;19.53;17.53;;;18.60;99.90;;;;;;6211706;23;20385;-55
2022/09/14 11:13:48;;;;;;;20.33;18.43;;;18.60;99.90;;;;;;6240562;23;20455;-54
2022/09/14 11:16:16;;;;;;;20.73;18.63;;;18.60;99.90;;;;;;6213651;23;20387;-51
2022/09/14 11:19:13;;;;;;;20.43;18.40;;;18.60;99.90;;;;;;6240152;23;20374;-54
2022/09/14 11:21:56;;;;;;;21.20;19.10;;;18.60;99.90;;;;;;6240503;23;20459;-56
2022/09/14 11:24:45;;;;;;;21.07;19.00;;;18.70;99.90;;;;;;6240666;23;20378;-56
2022/09/14 11:27:31;;;;;;;22.07;19.97;;;18.60;99.90;;;;;;6240525;23;20688;-53
2022/09/14 11:30:01;;;;;;;20.03;18.13;;;18.60;99.90;;;;;;6239825;23;20419;-53
2022/09/14 11:32:43;;;;;;;22.50;20.37;;;18.70;99.90;;;;;;6213449;23;20384;-54
2022/09/14 11:35:16;;;;;;;21.30;19.20;;;18.70;99.90;;;;;;6240469;23;20368;-56
2022/09/14 11:38:11;;;;;;;23.07;20.77;;;18.70;99.90;;;;;;6240121;23;20796;-55
2022/09/14 11:41:09;;;;;;;23.63;21.27;;;18.60;99.90;;;;;;6239479;23;20821;-54
2022/09/14 11:43:46;;;;;;;23.40;21.00;;;18.60;99.90;;;;;;6228205;23;20384;-52
2022/09/14 11:46:17;;;;;;;22.23;20.03;;;18.60;99.90;;;;;;6240267;23;20439;-55
2022/09/14 11:48:59;;;;;;;23.43;21.23;;;18.60;99.90;;;;;;6213205;23;20420;-55
2022/09/14 11:52:01;;;;;;;24.90;22.10;;;18.60;99.90;;;;;;6240201;23;20360;-55
2022/09/14 11:54:27;;;;;;;25.00;22.60;;;18.60;99.90;;;;;;6215687;23;20502;-55
2022/09/14 11:56:57;;;;;;;25.00;22.60;;;18.50;99.90;;;;;;6239751;23;20387;-54
2022/09/14 11:59:38;;;;;;;23.70;21.27;;;18.40;99.90;;;;;;6239878;23;20376;-54
2022/09/14 12:02:24;;;;;;;25.30;22.80;;;18.40;99.90;;;;;;6240049;23;20819;-55
2022/09/14 12:05:07;;;;;;;24.23;21.93;;;18.50;99.90;;;;;;6208343;23;20387;-57
2022/09/14 12:07:42;;;;;;;23.57;21.37;;;18.50;99.90;;;;;;6240316;23;20894;-56
2022/09/14 12:10:26;;;;;;;23.93;21.53;;;18.50;99.90;;;;;;6239680;23;20379;-57
2022/09/14 12:12:57;;;;;;;24.53;22.10;;;18.30;99.90;;;;;;6240109;23;20368;-53
2022/09/14 12:15:26;;;;;;;23.60;21.30;;;18.30;99.90;;;;;;6239809;23;20422;-56
2022/09/14 12:18:04;;;;;;;22.67;20.47;;;18.40;99.90;;;;;;6240036;23;20445;-56
2022/09/14 12:20:36;;;;;;;24.83;22.43;;;18.40;99.90;;;;;;6239790;23;20353;-53
2022/09/14 12:23:27;;;;;;;23.80;21.50;;;18.40;99.90;;;;;;6238844;23;20376;-54
2022/09/14 12:26:05;;;;;;;24.67;22.10;;;18.40;99.90;;;;;;6240152;23;20381;-54
2022/09/14 12:28:34;;;;;;;24.00;21.40;;;18.50;99.90;;;;;;6237948;23;20463;-57
2022/09/14 12:30:59;;;;;;;23.00;20.80;;;18.50;99.90;;;;;;6240109;23;20439;-56
2022/09/14 12:33:34;;;;;;;22.23;20.03;;;18.60;99.90;;;;;;6240620;23;20662;-51
2022/09/14 12:36:00;;;;;;;24.77;22.20;;;18.70;99.90;;;;;;6238912;23;20143;-52
2022/09/14 12:38:28;;;;;;;22.57;20.37;;;18.70;99.90;;;;;;6240285;23;20372;-51
2022/09/14 12:41:01;;;;;;;22.03;19.93;;;18.70;99.90;;;;;;6239764;23;20379;-51
2022/09/14 12:43:33;;;;;;;21.63;19.77;;;18.70;99.90;;;;;;6239661;23;20687;-51
2022/09/14 12:46:25;;;;;;;21.50;19.37;;;18.80;99.90;;;;;;6239598;23;20404;-54
2022/09/14 12:48:57;;;;;;;22.00;19.70;;;18.80;99.90;;;;;;6236472;23;20442;-55
2022/09/14 12:54:00;;;;;;;20.53;18.73;;;18.90;99.90;;;;;;6240247;23;20366;-54
2022/09/14 12:56:28;;;;;;;20.33;18.20;;;19.00;99.90;;;;;;6240099;23;20352;-54
2022/09/14 12:58:59;;;;;;;19.83;18.00;;;19.00;99.90;;;;;;6239045;23;20393;-51